Allenton, Missouri
Current Conditions -  °F | °C
As of 5:54 AM on Saturday 20 Dec 2014 (Local Time) from KSUS Reporting Station
Overcast Overcast  
Wind Chill:   Ceiling: 2200
Heat Index:   Visibility: 8mi
Dew Point: -2°   Wind: 0mph
Humidity: 78%   Direction: NA
Pressure: 30.24"   Gusts: NA
Location:  38.5°N, 90.68°W
Report Text: KSUS 201154Z 00000KT 8SM OVC022 02/M02 A3024 RMK AO2 SLP246 T00171017 10017 20011 58004
Loading
Personal Weather Stations






























Interactive Weather Map New forecast layout! Learn more

10-Day Weather Forecast

Advertisements
Track Severe Weather on mobile